createdAt,value
2019-02-04T00:04:41.934Z,15.10
2019-02-04T00:10:45.296Z,16.25
2019-02-04T00:16:47.529Z,14.10
2019-02-04T00:22:50.219Z,14.87
2019-02-04T00:28:53.791Z,15.83
2019-02-04T00:34:56.174Z,15.20
2019-02-04T00:40:58.486Z,15.30
2019-02-04T00:47:00.787Z,14.93
2019-02-04T00:53:02.978Z,13.55
2019-02-04T00:59:05.403Z,14.98
2019-02-04T01:05:07.559Z,13.90
2019-02-04T01:11:09.971Z,14.05
2019-02-04T01:17:12.323Z,12.80
2019-02-04T01:23:14.536Z,13.93
2019-02-04T01:29:16.899Z,12.23
2019-02-04T01:35:19.489Z,12.43
2019-02-04T01:41:23.493Z,12.07
2019-02-04T01:47:25.839Z,12.65
2019-02-04T01:53:28.113Z,12.98
2019-02-04T01:59:30.845Z,12.00
2019-02-04T02:05:33.074Z,13.35
2019-02-04T02:11:35.327Z,13.10
2019-02-04T02:17:38.537Z,12.63
2019-02-04T02:23:40.788Z,12.53
2019-02-04T02:29:43.035Z,13.50
2019-02-04T02:35:48.612Z,13.83
2019-02-04T02:41:50.895Z,13.18
2019-02-04T02:47:53.292Z,14.23
2019-02-04T02:53:55.525Z,14.60
2019-02-04T02:59:57.895Z,14.05
2019-02-04T03:06:00.182Z,13.03
2019-02-04T03:12:02.550Z,14.28
2019-02-04T03:18:04.659Z,13.78
2019-02-04T03:24:06.893Z,14.40
2019-02-04T03:30:30.437Z,16.25
2019-02-04T03:36:32.863Z,15.72
2019-02-04T03:42:35.223Z,17.05
2019-02-04T03:48:37.421Z,17.23
2019-02-04T03:54:40.709Z,15.38
2019-02-04T04:00:43.360Z,18.20
2019-02-04T04:06:45.697Z,16.50
2019-02-04T04:12:47.848Z,16.62
2019-02-04T04:18:50.095Z,17.45
2019-02-04T04:24:52.338Z,17.40
2019-02-04T04:30:54.466Z,16.17
2019-02-04T04:36:57.079Z,17.32
2019-02-04T04:43:00.335Z,17.07
2019-02-04T04:49:02.596Z,17.75
2019-02-04T04:55:05.983Z,16.25
2019-02-04T05:01:08.448Z,17.20
2019-02-04T05:07:10.563Z,16.40
2019-02-04T05:13:13.952Z,15.85
2019-02-04T05:19:16.183Z,18.02
2019-02-04T05:25:19.522Z,17.42
2019-02-04T05:31:22.730Z,16.80
2019-02-04T05:37:24.982Z,17.25
2019-02-04T05:43:27.396Z,17.55
2019-02-04T05:49:29.596Z,16.60
2019-02-04T05:55:32.106Z,17.35
2019-02-04T06:01:34.239Z,16.85
2019-02-04T06:07:36.635Z,17.62
2019-02-04T06:13:39.948Z,17.85
2019-02-04T06:19:42.290Z,18.23
2019-02-04T06:25:45.514Z,17.62
2019-02-04T06:31:47.760Z,18.87
2019-02-04T06:37:51.359Z,19.67
2019-02-04T06:43:53.789Z,20.90
2019-02-04T06:49:57.346Z,17.23
2019-02-04T06:55:59.707Z,17.92
2019-02-04T07:02:02.164Z,17.23
2019-02-04T07:08:05.572Z,18.98
2019-02-04T07:14:09.191Z,16.42
2019-02-04T07:20:14.365Z,19.07
2019-02-04T07:26:16.702Z,21.10
2019-02-04T07:32:19.013Z,23.20
2019-02-04T07:38:21.177Z,21.40
2019-02-04T07:44:23.373Z,21.57
2019-02-04T07:50:25.570Z,23.47
2019-02-04T07:56:27.731Z,22.27
2019-02-04T08:02:30.600Z,23.25
2019-02-04T08:08:33.119Z,23.27
2019-02-04T08:14:35.257Z,20.77
2019-02-04T08:20:37.496Z,20.68
2019-02-04T08:26:40.925Z,21.35
2019-02-04T08:32:43.288Z,20.43
2019-02-04T08:38:45.717Z,20.60
2019-02-04T08:44:48.075Z,22.70
2019-02-04T08:50:50.493Z,20.92
2019-02-04T08:56:52.830Z,21.27
2019-02-04T09:02:55.002Z,21.50
2019-02-04T09:08:57.854Z,21.70
2019-02-04T09:15:00.101Z,21.90
2019-02-04T09:21:02.911Z,20.70
2019-02-04T09:27:05.925Z,20.45
2019-02-04T09:33:08.015Z,22.00
2019-02-04T09:39:10.325Z,19.85
2019-02-04T09:45:14.863Z,20.77
2019-02-04T09:51:17.444Z,19.32
2019-02-04T09:57:19.810Z,19.52
2019-02-04T10:03:22.283Z,18.50
2019-02-04T10:09:26.116Z,18.57
2019-02-04T10:15:30.528Z,15.90
2019-02-04T10:21:32.719Z,16.27
2019-02-04T10:27:36.502Z,15.75
2019-02-04T10:33:39.289Z,15.48
2019-02-04T10:39:41.392Z,14.28
2019-02-04T10:45:43.662Z,14.68
2019-02-04T10:51:46.056Z,15.20
2019-02-04T10:57:48.821Z,13.22
2019-02-04T11:03:50.923Z,15.28
2019-02-04T11:09:53.143Z,15.03
2019-02-04T11:15:55.548Z,15.60
2019-02-04T11:21:57.724Z,14.20
2019-02-04T11:28:00.362Z,14.05
2019-02-04T11:34:02.484Z,14.10
2019-02-04T11:40:04.775Z,14.80
2019-02-04T11:46:07.085Z,15.13
2019-02-04T11:52:12.118Z,14.90
2019-02-04T11:58:14.562Z,14.58
2019-02-04T12:04:17.853Z,13.62
2019-02-04T12:10:32.360Z,11.18
2019-02-04T12:16:34.845Z,12.50
2019-02-04T12:22:37.018Z,11.60
2019-02-04T12:28:39.131Z,11.55
2019-02-04T12:34:41.371Z,12.13
2019-02-04T12:40:43.635Z,11.15
2019-02-04T12:46:46.135Z,11.53
2019-02-04T12:52:48.610Z,13.60
2019-02-04T12:58:55.715Z,14.07
2019-02-04T13:04:55.731Z,15.70
2019-02-04T13:10:58.802Z,15.40
2019-02-04T13:17:01.937Z,14.95
2019-02-04T13:23:04.329Z,15.60
2019-02-04T13:29:06.946Z,13.43
2019-02-04T13:35:09.494Z,13.72
2019-02-04T13:41:12.810Z,12.93
2019-02-04T13:47:15.268Z,15.25
2019-02-04T13:53:17.791Z,14.68
2019-02-04T13:59:20.447Z,14.35
2019-02-04T14:05:22.753Z,14.58
2019-02-04T14:11:26.120Z,13.72
2019-02-04T14:17:29.553Z,14.25
2019-02-04T14:23:31.678Z,13.38
2019-02-04T14:29:34.382Z,13.48
2019-02-04T14:35:36.566Z,14.40
2019-02-04T14:41:39.203Z,13.93
2019-02-04T14:48:02.799Z,14.55
2019-02-04T14:54:37.686Z,14.13
2019-02-04T15:01:10.295Z,14.90
2019-02-04T15:07:49.526Z,14.85
2019-02-04T15:14:30.723Z,15.63
2019-02-04T15:21:09.047Z,17.27
2019-02-04T15:27:33.057Z,23.87
2019-02-04T15:33:56.355Z,21.55
2019-02-04T15:40:08.179Z,17.98
2019-02-04T15:46:38.964Z,17.37
2019-02-04T15:52:45.612Z,17.23
2019-02-04T15:58:47.193Z,30.43
2019-02-04T16:04:50.979Z,25.20
2019-02-04T16:10:53.197Z,24.92
2019-02-04T16:16:55.817Z,26.87
2019-02-04T16:22:59.153Z,23.35
2019-02-04T16:29:01.599Z,22.35
2019-02-04T16:35:04.936Z,28.23
2019-02-04T16:41:07.486Z,26.10
2019-02-04T16:47:09.964Z,22.98
2019-02-04T16:53:12.457Z,19.12
2019-02-04T16:59:14.837Z,17.40
2019-02-04T17:05:18.466Z,16.12
2019-02-04T17:11:20.716Z,15.75
2019-02-04T17:17:23.033Z,15.63
2019-02-04T17:23:26.890Z,13.62
2019-02-04T17:29:29.330Z,14.80
2019-02-04T17:35:31.514Z,14.53
2019-02-04T17:41:33.735Z,15.30
2019-02-04T17:47:36.231Z,14.75
2019-02-04T17:53:39.214Z,13.78
2019-02-04T17:59:42.008Z,13.35
2019-02-04T18:05:44.303Z,13.25
2019-02-04T18:11:46.790Z,13.70
2019-02-04T18:17:49.188Z,13.40
2019-02-04T18:23:52.388Z,14.13
2019-02-04T18:29:54.656Z,15.85
2019-02-04T18:35:56.858Z,16.57
2019-02-04T18:41:59.466Z,16.65
2019-02-04T18:48:01.795Z,16.82
2019-02-04T18:54:04.407Z,16.07
2019-02-04T19:00:09.101Z,15.60
2019-02-04T19:06:11.339Z,15.35
2019-02-04T19:12:13.488Z,14.10
2019-02-04T19:18:18.627Z,13.90
2019-02-04T19:24:21.029Z,13.98
2019-02-04T19:30:39.555Z,13.28
2019-02-04T19:36:41.727Z,12.28
2019-02-04T19:42:44.118Z,11.90
2019-02-04T19:48:46.387Z,11.97
2019-02-04T19:54:48.931Z,10.35
2019-02-04T20:00:51.240Z,10.60
2019-02-04T20:06:53.457Z,8.58
2019-02-04T20:12:55.792Z,7.72
2019-02-04T20:18:59.959Z,8.83
2019-02-04T20:25:02.104Z,8.20
2019-02-04T20:31:04.279Z,8.60
2019-02-04T20:37:12.098Z,9.23
2019-02-04T20:43:14.410Z,8.20
2019-02-04T20:49:18.501Z,8.00
2019-02-04T20:55:20.750Z,8.45
2019-02-04T21:01:23.605Z,9.13
2019-02-04T21:07:26.104Z,9.33
2019-02-04T21:13:28.434Z,9.18
2019-02-04T21:19:30.631Z,7.85
2019-02-04T21:25:32.822Z,8.35
2019-02-04T21:31:39.451Z,7.50
2019-02-04T21:37:41.754Z,8.40
2019-02-04T21:43:45.015Z,7.92
2019-02-04T21:49:47.363Z,9.05
2019-02-04T21:55:49.736Z,8.53
2019-02-04T22:01:54.799Z,8.63
2019-02-04T22:07:57.106Z,8.25
2019-02-04T22:13:59.710Z,8.13
2019-02-04T22:20:02.192Z,8.75
2019-02-04T22:26:04.615Z,8.68
2019-02-04T22:32:06.736Z,8.90
2019-02-04T22:38:09.150Z,9.40
2019-02-04T22:44:11.969Z,8.75
2019-02-04T22:50:21.559Z,8.70
2019-02-04T22:56:23.850Z,7.87
2019-02-04T23:02:26.735Z,8.55
2019-02-04T23:08:29.473Z,8.08
2019-02-04T23:14:31.745Z,7.90
2019-02-04T23:20:34.318Z,8.58
2019-02-04T23:26:36.448Z,7.75
2019-02-04T23:32:38.568Z,8.05
2019-02-04T23:38:41.831Z,7.47
2019-02-04T23:44:44.127Z,8.13
2019-02-04T23:50:46.407Z,6.65
2019-02-04T23:56:48.578Z,6.87
